Terminal Aerodrome Forecast
Issued by NWS

Home | Current Version | Previous Version | Text Only | Print | Product List | Glossary On
Versions: 1 2 3 4 5 6 7 8 9 10 11 12
000
FTUS45 KABQ 271131
TAFROW
TAF
KROW 271131Z 2712/2812 VRB05KT P6SM SCT005
     FM271500 15010KT P6SM SCT250
     FM271800 16013G21KT P6SM BKN250
     FM280100 16010KT P6SM BKN200
     FM280900 17006KT P6SM VCSH SCT005 BKN035=

USA.gov is the U.S. government's official web portal to all federal, state and local government web resources and services.